Terminal Aerodrome Forecast
Issued by NWS Sioux Falls, SD

Home | Current Version | Previous Version | Text Only | Print | Product List | Glossary Off
Versions: 1 2 3 4 5 6 7 8 9 10 11 12 13 14 15 16 17 18 19 20 21

000
FTUS43 KFSD 132340
TAFSUX
TAF
KSUX 132340Z 1400/1424 18010KT P6SM BKN050
     FM140400 16006KT P6SM VCTS BKN040CB
     FM140700 18006KT P6SM SCT040
     FM141100 21005KT 2SM BR BKN015
     FM141400 25004KT 3SM BR BKN020
     FM141500 25004KT P6SM BKN020
     FM141700 21004KT P6SM SCT060=

USA.gov is the U.S. government's official web portal to all federal, state and local government web resources and services.